ベロオリゾンテ の空港の天気 - METARとTAF

タンクレド・ネヴェス国際空港 ( SBCF / CNF ) - ブラジル ミナスジェライス州ベロオリゾンテ
飛行場実況気象(Metar)
観測時間11/17 16:00 BRST (11/17 18:00 UTC)
風向・風速北東 3m/s
視程10km以上
天気現象
全天の8割程度の雲 雲底高度 1220m
全天の4割程度の雲 雲底高度 2440m
気温27℃
湿度45%
気圧1018hPa
METARSBCF 171800Z 05006KT 9999 BKN040 SCT080 27/14 Q1018
過去の天気等 Google飛行場航空写真 Wunderground天気予報

過去48時間のMETAR

飛行場予報(TAF)
発表時間: 11/17 12:00 BRST (11/17 14:00 UTC)
予報対象時間: 17日16時 BRST ~ 18日16時 BRST
風向・風速東 5m/s
視程7000m
全天の4割程度の雲 雲底高度 1220m
17日22時 BRST ~ 17日24時 BRST に徐々に
風向・風速東 4m/s
全天の4割程度の雲 雲底高度 240m
18日0時 BRST から 確率 30% で
視程2000m
天気現象
全天の8割程度の雲 雲底高度 60m
18日4時 BRST ~ 18日6時 BRST に徐々に
風向・風速東 3m/s
少しの雲 雲底高度 460m
18日10時 BRST ~ 18日12時 BRST に徐々に
風向・風速東 3m/s
全天の4割程度の雲 雲底高度 610m
18日11時 BRST から 確率 30% で
全天の8割程度の雲 雲底高度 m
TAF SBCF 171400Z 1718/1818 09010KT 7000 SCT040 TN19/1806Z TX28/1817Z
BECMG 1800/1802 09008KT SCT008
PROB30 1802/1804 2000 RA BKN002
BECMG 1806/ 1808 09005KT FEW015
BECMG 1812/1814 10005KT SCT020
PROB30 1813/1817 BKN02 0 RMK PDE